• Join FlightAware (Why Join?)
  • Login
  • US Flag 
11:44AM EST


 

Airport Tracker/Info


-or-


 

Live Flight TrackerFlight Track Log ✈ N830W ✈ 11-Jul-2013 ✈ KGBR - KROC

Flight Track Log - Related Links

Times and Time Zones

All times are in EDT time to prevent confusion due to time zone crossing. See the N830W flight status page for this flight to view local times or setup timezone preferences in your user account.

Time Position Orientation Groundspeed Altitude Reporting Facility
EDT Latitude Longitude Course Direction KTS MPH feet Rate Location/Type
01:20PM 42.3681 -73.5192 288° West 139 160 4,900  Level Boston Center
01:21PM 42.3822 -73.5644 293° West 138 159 4,400 -300 Descending Boston Center
01:22PM 42.3922 -73.6094 287° West 121 139 4,400  Level Boston Center
01:23PM 42.4003 -73.6492 285° West 112 129 4,400  Level Boston Center
01:24PM 42.4122 -73.6972 289° West 115 132 4,500 60 Climbing Boston Center
01:25PM 42.4200 -73.7339 286° West 112 129 4,600  Climbing Boston Center
01:26PM 42.3181 -73.9654 288° West  Level Estimated
01:26PM 42.4300 -73.7761 288° West 113 130 4,600  Level Boston Center
01:27PM 42.4419 -73.8186 291° West 118 136 4,600  Level Boston Center
01:28PM 42.4519 -73.8583 289° West 120 138 4,600  Level Boston Center
01:29PM 42.4619 -73.9008 288° West 116 133 4,700 60 Climbing Boston Center
01:30PM 42.4739 -73.9431 291° West 115 132 4,800 -60 Climbing Boston Center
01:31PM 42.4858 -73.9858 291° West 116 133 4,600 -60 Descending Boston Center
01:32PM 42.4997 -74.0228 297° West 113 130 4,700  Climbing Boston Center
01:33PM 42.5097 -74.0625 289° West 114 131 4,600  Descending Boston Center
01:34PM 42.5217 -74.1022 292° West 113 130 4,700 240 Climbing Boston Center
01:35PM 42.5378 -74.1364 303° West 101 116 5,100 480 Climbing Boston Center
01:36PM 42.5500 -74.1650 300° West 87 100 5,700 540 Climbing Boston Center
01:37PM 42.5619 -74.1933 300° West 79 91 6,200 420 Climbing Boston Center
01:39PM 42.5739 -74.2247 297° West 84 97 6,700 300 Climbing Boston Center
01:40PM 42.5797 -74.2589 283° West 96 110 6,900 180 Climbing Boston Center
01:41PM 42.5811 -74.2956 273° West 96 110 7,100 240 Climbing Boston Center
01:42PM 42.5764 -74.3319 260° West 95 109 7,400 240 Climbing Boston Center
01:43PM 42.5778 -74.3658 273° West 98 113 7,700 240 Climbing Boston Center
01:43PM 42.5814 -74.3997 278° West 101 116 7,900 180 Climbing Boston Center
01:44PM 42.5892 -74.4367 286° West 100 115 8,100 180 Climbing Boston Center
01:45PM 42.5947 -74.4708 282° West 100 115 8,300 240 Climbing Boston Center
01:46PM 42.6025 -74.5078 286° West 98 113 8,600 180 Climbing Boston Center
01:47PM 42.6058 -74.5472 277° West 104 120 8,700 60 Climbing Boston Center
01:48PM 42.6136 -74.5872 285° West 106 122 8,800 60 Climbing Boston Center
01:49PM 42.6169 -74.6239 277° West 105 121 8,900  Climbing Boston Center
01:50PM 42.6244 -74.6692 283° West 107 123 8,900  Level Boston Center
01:51PM 42.6319 -74.7092 284° West 111 128 8,900  Level Boston Center
01:52PM 42.6417 -74.7489 288° West 111 128 8,900  Level Boston Center
01:54PM 42.6514 -74.7861 290° West 112 129 8,900  Level Boston Center
01:55PM 42.6631 -74.8261 292° West 114 131 8,900  Level Boston Center
01:56PM 42.6725 -74.8686 287° West 111 128 8,900  Level Boston Center
01:57PM 42.6822 -74.9058 290° West 111 128 8,900  Level Boston Center
01:58PM 42.6917 -74.9458 288° West 111 128 9,000  Climbing Boston Center
01:59PM 42.6969 -74.9883 280° West 110 127 9,000 -60 Level Boston Center
02:00PM 42.7022 -75.0308 280° West 110 127 8,900 -60 Descending Boston Center
02:01PM 42.7075 -75.0708 280° West 112 129 8,900  Level Boston Center
02:02PM 42.7150 -75.1133 284° West 115 132 9,000  Climbing Boston Center
02:03PM 42.7181 -75.1589 275° West 115 132 9,000  Level Boston Center
02:04PM 42.7211 -75.2014 276° West 115 132 9,000  Level Boston Center
02:05PM 42.7244 -75.2439 276° West 115 132 9,100  Climbing Boston Center
02:06PM 42.7314 -75.2894 282° West 116 133 9,100 -60 Level Boston Center
02:07PM 42.7389 -75.3294 284° West 115 132 9,000 -60 Descending Boston Center
02:08PM 42.7461 -75.3722 283° West 113 130 9,000  Level Boston Center
02:09PM 42.7492 -75.4147 276° West 113 130 9,000  Level Boston Center
02:10PM 42.7522 -75.4572 276° West 112 129 9,000  Level Boston Center
02:11PM 42.7511 -75.4997 268° West 112 129 9,000  Level Boston Center
02:12PM 42.7542 -75.5422 276° West 111 128 9,100  Climbing Boston Center
02:13PM 42.7592 -75.5819 280° West 112 129 9,000 -60 Descending Boston Center
02:14PM 42.7661 -75.6306 281° West 111 128 9,000 -60 Level Boston Center
02:15PM 42.7733 -75.6733 283° West 113 130 8,900  Descending Boston Center
02:16PM 42.7806 -75.7133 284° West 113 130 9,000  Climbing Boston Center
02:17PM 42.7878 -75.7533 284° West 112 129 9,000  Level Boston Center
02:18PM 42.7928 -75.7961 279° West 112 129 9,000  Level Boston Center
02:19PM 42.7978 -75.8389 279° West 111 128 9,000 60 Level Boston Center
02:20PM 42.8047 -75.8817 282° West 107 123 9,200 60 Climbing Boston Center
02:21PM 42.8097 -75.9217 280° West 108 124 9,200  Level Boston Center
02:22PM 42.8128 -75.9642 276° West 109 125 9,300 60 Climbing Boston Center
02:23PM 42.8178 -76.0042 280° West 110 127 9,400  Climbing Boston Center
02:25PM 42.8319 -76.0842 284° West 113 130 9,400  Level Boston Center
02:26PM 42.8389 -76.1272 282° West 114 131 9,400 -60 Level Boston Center
02:27PM 42.8436 -76.1700 279° West 115 132 9,300 -60 Descending Boston Center
02:28PM 42.8506 -76.2156 282° West 114 131 9,300  Level Boston Center
02:29PM 42.8578 -76.2500 286° West 114 131 9,300  Level Boston Center
02:30PM 42.8625 -76.2928 279° West 111 128 9,300 -60 Level Boston Center
02:31PM 42.8733 -76.3389 288° West 114 131 9,200 -60 Descending Boston Center
02:32PM 42.8803 -76.3819 282° West 114 131 9,200  Level Boston Center
02:33PM 42.8872 -76.4247 283° West 117 135 9,300  Climbing Boston Center
02:34PM 42.8917 -76.4706 278° West 116 133 9,200 -60 Descending Boston Center
02:35PM 42.8986 -76.5136 282° West 117 135 9,200  Level Boston Center
02:36PM 42.9011 -76.5561 275° West 115 132 9,200  Level Boston Center
02:37PM 42.9100 -76.6022 285° West 114 131 9,300 60 Climbing Boston Center
02:38PM 42.9189 -76.6425 287° West 108 124 9,400 60 Climbing Boston Center
02:39PM 42.9233 -76.6644 285° West 110 127 9,500  Climbing Cleveland Center
02:40PM 42.9308 -76.7036 285° West 110 127 9,500  Level Cleveland Center
02:41PM 42.9406 -76.7486 286° West 114 131 9,500  Level Cleveland Center
02:42PM 42.9503 -76.7906 288° West 114 131 9,500  Level Cleveland Center
02:43PM 42.9578 -76.8269 286° West 109 125 9,600  Climbing Cleveland Center
02:44PM 42.9633 -76.8692 280° West 110 127 9,600 -180 Level Cleveland Center
02:45PM 42.9772 -76.9136 293° West 127 146 9,300 -540 Descending Cleveland Center
02:46PM 42.9975 -76.9581 302° West 134 154 8,600 -720 Descending Cleveland Center
02:47PM 43.0175 -77.0022 302° West 141 162 7,900 -480 Descending Cleveland Center
02:48PM 43.0314 -77.0497 292° West 134 154 7,700 -600 Descending Cleveland Center
02:49PM 43.0228 -77.1014 257° West 144 166 6,800 -1,200 Descending Cleveland Center
02:50PM 43.0161 -77.1586 261° West 149 171 5,300 -1,440 Descending Cleveland Center
02:51PM 43.0050 -77.2103 254° West 142 163 4,000 -960 Descending Cleveland Center
02:52PM 43.0022 -77.2614 266° West 120 138 3,400 -480 Descending Cleveland Center
02:53PM 42.9994 -77.3042 265° West 114 131 3,100 -240 Descending Cleveland Center
02:54PM 43.0006 -77.3497 272° West 116 133 3,000 -120 Descending Cleveland Center
02:55PM 43.0019 -77.3922 273° West 115 132 2,900 -180 Descending Cleveland Center
02:56PM 43.0011 -77.4378 269° West 120 138 2,700 -240 Descending Cleveland Center
02:57PM 43.0022 -77.4831 272° West 117 135 2,500 -120 Descending Cleveland Center
02:58PM 42.9992 -77.5286 265° West 118 136 2,500  Level Cleveland Center
02:59PM 42.9981 -77.5656 268° West 112 129 2,600 -300 Climbing Cleveland Center
03:00PM 43.0200 -77.6072 306° West 130 150 2,000 -540 Descending Cleveland Center
03:01PM 43.0417 -77.6403 312° West 113 130 1,600 -300 Descending Cleveland Center
03:02PM 43.0675 -77.6644 326° Northwest 100 115 1,400 -240 Descending Cleveland Center